Time;durP1;ratioP1;P1;durP2;ratioP2;P2;SDS_P1;SDS_P2;PMS_P1;PMS_P2;Temp;Humidity;BMP_temperature;BMP_pressure;BME280_temperature;BME280_humidity;BME280_pressure;Samples;Min_cycle;Max_cycle;Signal;HPM_P1;HPM_P2
2022/11/17 00:01:59;;;;;;;5.43;2.95;;;4.80;99.90;;;;;;5053300;28;20017;-72
2022/11/17 00:04:28;;;;;;;6.50;3.00;;;4.80;99.90;;;;;;5053481;28;20021;-73
2022/11/17 00:06:54;;;;;;;8.23;3.00;;;4.90;99.90;;;;;;5052653;28;20586;-72
2022/11/17 00:09:19;;;;;;;6.68;3.10;;;4.90;99.90;;;;;;5035280;28;20033;-73
2022/11/17 00:14:31;;;;;;;11.55;2.80;;;5.00;99.90;;;;;;5057625;28;20039;-73
2022/11/17 00:17:00;;;;;;;8.05;2.72;;;5.00;99.90;;;;;;5056450;28;20029;-73
2022/11/17 00:22:10;;;;;;;;;;;4.90;99.90;;;;;;5057657;28;20027;-72
2022/11/17 00:24:35;;;;;;;6.13;3.30;;;5.00;99.90;;;;;;5057134;28;19995;-73
2022/11/17 00:27:01;;;;;;;8.30;3.38;;;5.00;99.90;;;;;;5056202;28;20025;-73
2022/11/17 00:29:30;;;;;;;4.57;3.13;;;5.00;99.90;;;;;;5056996;28;20025;-73
2022/11/17 00:34:39;;;;;;;;;;;5.00;99.90;;;;;;5057328;28;20039;-73
2022/11/17 00:37:06;;;;;;;4.88;2.78;;;5.00;99.90;;;;;;5055784;28;19952;-72
2022/11/17 00:39:32;;;;;;;9.50;3.65;;;5.00;99.90;;;;;;5057790;28;20044;-73
2022/11/17 00:41:58;;;;;;;10.68;3.55;;;5.00;99.90;;;;;;5056912;28;20021;-73
2022/11/17 00:44:24;;;;;;;4.53;3.20;;;5.00;99.90;;;;;;5057473;28;20427;-73
2022/11/17 00:46:50;;;;;;;11.68;2.72;;;5.00;99.90;;;;;;5056722;28;20025;-72
2022/11/17 00:49:15;;;;;;;8.52;3.38;;;5.00;99.90;;;;;;5038811;28;20481;-73
2022/11/17 00:51:41;;;;;;;11.52;3.05;;;5.00;99.90;;;;;;5038913;28;20025;-72
2022/11/17 00:54:10;;;;;;;12.52;4.38;;;5.00;99.90;;;;;;5055980;28;20031;-73
2022/11/17 00:56:36;;;;;;;6.70;3.13;;;5.00;99.90;;;;;;5056733;28;20037;-73
2022/11/17 00:59:02;;;;;;;5.00;3.08;;;5.00;99.90;;;;;;5056530;28;20391;-73
2022/11/17 01:01:28;;;;;;;6.85;3.30;;;5.00;99.90;;;;;;5056074;28;20099;-73
2022/11/17 01:04:01;;;;;;;7.60;3.25;;;5.00;99.90;;;;;;5056342;28;20484;-72
2022/11/17 01:06:43;;;;;;;11.18;3.65;;;5.00;99.90;;;;;;5038445;28;20021;-72
2022/11/17 01:09:15;;;;;;;9.50;3.22;;;4.90;99.90;;;;;;5056614;28;20460;-72
2022/11/17 01:11:41;;;;;;;11.57;2.97;;;4.90;99.90;;;;;;5055791;28;20480;-72
2022/11/17 01:14:15;;;;;;;6.45;3.35;;;4.80;99.90;;;;;;5056544;28;20025;-72
2022/11/17 01:16:41;;;;;;;8.82;2.47;;;4.70;99.90;;;;;;5038284;28;20025;-73
2022/11/17 01:19:07;;;;;;;6.95;3.17;;;4.70;99.90;;;;;;5056351;28;20037;-72
2022/11/17 01:21:32;;;;;;;4.10;2.28;;;4.60;99.90;;;;;;5055758;28;20074;-72
2022/11/17 01:24:00;;;;;;;4.97;3.08;;;4.50;99.90;;;;;;5037075;28;20039;-73
2022/11/17 01:26:28;;;;;;;4.95;2.70;;;4.40;99.90;;;;;;5037536;28;20025;-71
2022/11/17 01:28:54;;;;;;;4.25;3.05;;;4.40;99.90;;;;;;5055850;28;20036;-72
2022/11/17 01:31:22;;;;;;;5.72;2.92;;;4.40;99.90;;;;;;5055869;28;20029;-72
2022/11/17 01:33:48;;;;;;;9.35;3.00;;;4.40;99.90;;;;;;5056078;28;20033;-73
2022/11/17 01:36:19;;;;;;;11.85;3.58;;;4.30;99.90;;;;;;5037545;28;20025;-72
2022/11/17 01:38:45;;;;;;;9.27;3.58;;;4.30;99.90;;;;;;5055965;28;20028;-73
2022/11/17 01:41:16;;;;;;;9.55;3.40;;;4.30;99.90;;;;;;5056280;28;20023;-72
2022/11/17 01:43:49;;;;;;;7.43;3.97;;;4.30;99.90;;;;;;5055579;28;20017;-72
2022/11/17 01:46:26;;;;;;;7.75;3.47;;;4.30;99.90;;;;;;5056163;28;20415;-72
2022/11/17 01:48:59;;;;;;;16.63;3.90;;;4.30;99.90;;;;;;5055416;28;20025;-73
2022/11/17 01:51:26;;;;;;;14.82;3.50;;;4.20;99.90;;;;;;5055842;28;20116;-72
2022/11/17 01:53:52;;;;;;;11.15;4.70;;;4.20;99.90;;;;;;5055454;28;20044;-73
2022/11/17 01:56:24;;;;;;;5.35;3.08;;;4.30;99.90;;;;;;5036924;28;20037;-73
2022/11/17 01:58:57;;;;;;;13.82;3.92;;;4.30;99.90;;;;;;5055372;28;20451;-73
2022/11/17 02:01:22;;;;;;;7.85;3.85;;;4.20;99.90;;;;;;5037701;28;20021;-73
2022/11/17 02:03:49;;;;;;;7.78;3.85;;;4.20;99.90;;;;;;5055290;28;20032;-73
2022/11/17 02:06:26;;;;;;;8.73;3.53;;;4.10;99.90;;;;;;5055435;28;20070;-73
2022/11/17 02:08:53;;;;;;;12.13;4.10;;;4.10;99.90;;;;;;5054941;28;20021;-72
2022/11/17 02:11:20;;;;;;;6.00;3.28;;;4.10;99.90;;;;;;5055332;28;20033;-72
2022/11/17 02:13:46;;;;;;;8.43;5.03;;;4.10;99.90;;;;;;5037229;28;20025;-73
2022/11/17 02:16:13;;;;;;;8.18;3.50;;;4.10;99.90;;;;;;5055197;28;20091;-73
2022/11/17 02:18:40;;;;;;;6.80;4.40;;;4.10;99.90;;;;;;5036585;28;20110;-72
2022/11/17 02:21:24;;;;;;;11.63;4.05;;;4.00;99.90;;;;;;5054925;28;20027;-72
2022/11/17 02:23:56;;;;;;;10.70;3.92;;;4.00;99.90;;;;;;5037250;28;20103;-72
2022/11/17 02:27:01;;;;;;;17.10;3.78;;;4.00;99.90;;;;;;5036502;28;20056;-72
2022/11/17 02:29:34;;;;;;;;;;;4.10;99.90;;;;;;5055577;28;20024;-72
2022/11/17 02:32:09;;;;;;;13.88;3.38;;;4.10;99.90;;;;;;5037131;28;20015;-72
2022/11/17 02:34:51;;;;;;;10.75;4.95;;;4.20;99.90;;;;;;5036837;28;20033;-72
2022/11/17 02:37:43;;;;;;;7.22;3.83;;;4.10;99.90;;;;;;5054390;28;20504;-72
2022/11/17 02:40:25;;;;;;;12.35;3.22;;;4.10;99.90;;;;;;5054084;28;20029;-73
2022/11/17 02:45:52;;;;;;;5.85;3.38;;;4.10;99.90;;;;;;5054455;28;20024;-72
2022/11/17 02:48:28;;;;;;;5.65;3.63;;;4.10;99.90;;;;;;5036914;28;20029;-73
2022/11/17 02:50:56;;;;;;;10.75;3.45;;;4.00;99.90;;;;;;5054426;28;20476;-73
2022/11/17 02:53:24;;;;;;;6.88;3.72;;;4.00;99.90;;;;;;5035979;28;20120;-72
2022/11/17 02:55:51;;;;;;;7.30;3.30;;;4.00;99.90;;;;;;5054300;28;20052;-72
2022/11/17 02:58:17;;;;;;;10.13;3.42;;;3.90;99.90;;;;;;5054366;28;20472;-72
2022/11/17 03:01:05;;;;;;;6.28;3.75;;;3.90;99.90;;;;;;5054523;28;20180;-73
2022/11/17 03:03:49;;;;;;;12.20;5.68;;;3.90;99.90;;;;;;5036326;28;20025;-71
2022/11/17 03:06:34;;;;;;;8.00;4.35;;;3.80;99.90;;;;;;5052772;28;20047;-71
2022/11/17 03:09:17;;;;;;;8.77;3.38;;;3.70;99.90;;;;;;5054083;28;20033;-72
2022/11/17 03:12:23;;;;;;;7.32;4.47;;;3.60;99.90;;;;;;5054088;28;20025;-72
2022/11/17 03:15:21;;;;;;;8.13;5.18;;;3.60;99.90;;;;;;5050732;28;20091;-72
2022/11/17 03:18:14;;;;;;;10.07;4.82;;;3.60;99.90;;;;;;5054261;28;20021;-72
2022/11/17 03:21:04;;;;;;;13.38;4.78;;;3.50;99.90;;;;;;5053651;28;20025;-72
2022/11/17 03:23:37;;;;;;;15.88;5.57;;;3.50;99.90;;;;;;5053827;28;20033;-73
2022/11/17 03:26:08;;;;;;;10.82;5.38;;;3.40;99.90;;;;;;5053668;28;20025;-72
2022/11/17 03:28:35;;;;;;;9.00;5.72;;;3.40;99.90;;;;;;5053322;28;20043;-72
2022/11/17 03:31:02;;;;;;;17.42;6.93;;;3.30;99.90;;;;;;5053629;28;20111;-72
2022/11/17 03:33:29;;;;;;;11.55;7.05;;;3.30;99.90;;;;;;5053909;28;20103;-72
2022/11/17 03:36:02;;;;;;;11.57;6.85;;;3.30;99.90;;;;;;5053409;28;20025;-72
2022/11/17 03:38:34;;;;;;;13.40;7.72;;;3.30;99.90;;;;;;5035669;28;20028;-72
2022/11/17 03:41:02;;;;;;;12.98;8.63;;;3.20;99.90;;;;;;5053527;28;20476;-73
2022/11/17 03:43:29;;;;;;;17.42;8.52;;;3.10;99.90;;;;;;5052799;28;20013;-72
2022/11/17 03:46:02;;;;;;;15.23;8.25;;;3.10;99.90;;;;;;5052698;28;20443;-72
2022/11/17 03:48:36;;;;;;;22.40;10.13;;;3.00;99.90;;;;;;5053466;28;20021;-72
2022/11/17 03:51:17;;;;;;;13.85;9.45;;;3.10;99.90;;;;;;5053474;28;20484;-73
2022/11/17 03:53:43;;;;;;;16.20;9.75;;;3.00;99.90;;;;;;5053857;28;20036;-72
2022/11/17 03:56:30;;;;;;;25.15;10.43;;;3.00;99.90;;;;;;5052580;28;20580;-72
2022/11/17 03:59:01;;;;;;;19.00;10.68;;;3.00;99.90;;;;;;5053532;28;20025;-73
2022/11/17 04:01:29;;;;;;;16.30;10.40;;;2.90;99.90;;;;;;5053403;28;20116;-73
2022/11/17 04:03:55;;;;;;;17.10;10.25;;;2.90;99.90;;;;;;5034885;28;20567;-72
2022/11/17 04:06:20;;;;;;;17.90;10.43;;;2.90;99.90;;;;;;5053259;28;20048;-72
2022/11/17 04:08:46;;;;;;;15.50;10.30;;;2.80;99.90;;;;;;5053209;28;20094;-73
2022/11/17 04:16:39;;;;;;;23.15;10.98;;;2.80;99.90;;;;;;5053201;28;20075;-72
2022/11/17 04:19:05;;;;;;;25.08;10.50;;;2.70;99.90;;;;;;5053138;28;20476;-72
2022/11/17 04:21:30;;;;;;;20.65;11.50;;;2.80;99.90;;;;;;5052903;28;20021;-72
2022/11/17 04:23:56;;;;;;;14.00;9.88;;;2.70;99.90;;;;;;5052615;28;20065;-73
2022/11/17 04:29:06;;;;;;;15.32;10.73;;;2.70;99.90;;;;;;5053644;28;20029;-72
2022/11/17 04:31:32;;;;;;;16.23;10.88;;;2.70;99.90;;;;;;5053247;28;20029;-72
2022/11/17 04:34:02;;;;;;;21.52;11.20;;;2.70;99.90;;;;;;5053024;28;20017;-72
2022/11/17 04:36:30;;;;;;;19.45;11.70;;;2.70;99.90;;;;;;5053658;28;20087;-72
2022/11/17 04:38:58;;;;;;;27.85;12.85;;;2.80;99.90;;;;;;5053915;28;20464;-72
2022/11/17 04:44:11;;;;;;;20.98;12.82;;;2.80;99.90;;;;;;5053729;28;20079;-72
2022/11/17 04:46:39;;;;;;;20.25;13.02;;;2.80;99.90;;;;;;5052785;28;20036;-72
2022/11/17 04:49:06;;;;;;;21.27;12.27;;;2.70;99.90;;;;;;5052363;28;20090;-72
2022/11/17 04:51:33;;;;;;;22.13;12.98;;;2.80;99.90;;;;;;5052941;28;20520;-72
2022/11/17 04:53:59;;;;;;;21.90;12.77;;;2.80;99.90;;;;;;5053063;28;20064;-72
2022/11/17 04:56:25;;;;;;;21.20;12.07;;;2.90;99.90;;;;;;5076382;23;20061;-69
2022/11/17 04:58:51;;;;;;;22.83;11.98;;;3.10;99.90;;;;;;5056512;28;20032;-69
2022/11/17 05:01:17;;;;;;;19.20;13.20;;;3.20;99.90;;;;;;5057996;28;20105;-69
2022/11/17 05:03:47;;;;;;;25.05;12.73;;;3.30;99.90;;;;;;5075651;28;20051;-69
2022/11/17 05:06:19;;;;;;;21.35;13.70;;;3.40;99.90;;;;;;5076548;28;20121;-69
2022/11/17 05:08:45;;;;;;;20.80;12.98;;;3.40;99.90;;;;;;5076336;28;20506;-69
2022/11/17 05:13:57;;;;;;;26.08;13.68;;;3.40;99.90;;;;;;5076108;28;20031;-69
2022/11/17 05:19:29;;;;;;;22.05;13.63;;;3.20;99.90;;;;;;5076174;28;20078;-69
2022/11/17 05:21:55;;;;;;;33.53;13.65;;;3.20;99.90;;;;;;5075283;28;20041;-69
2022/11/17 05:24:20;;;;;;;26.70;15.73;;;3.30;99.90;;;;;;5076104;28;20036;-69
2022/11/17 05:26:48;;;;;;;25.02;14.70;;;3.30;99.90;;;;;;5075234;28;20016;-69
2022/11/17 05:29:16;;;;;;;26.17;14.82;;;3.30;99.90;;;;;;5075715;28;20039;-69
2022/11/17 05:31:42;;;;;;;26.08;15.23;;;3.40;99.90;;;;;;5075760;28;20161;-69
2022/11/17 05:34:11;;;;;;;28.58;15.30;;;3.40;99.90;;;;;;5075860;28;20070;-69
2022/11/17 05:36:37;;;;;;;22.15;13.75;;;3.50;99.90;;;;;;5075712;28;20503;-69
2022/11/17 05:39:03;;;;;;;23.80;13.55;;;3.50;99.90;;;;;;5075252;28;20153;-69
2022/11/17 05:41:29;;;;;;;21.13;12.90;;;3.50;99.90;;;;;;5075831;28;20119;-69
2022/11/17 05:43:55;;;;;;;24.77;14.15;;;3.50;99.90;;;;;;5075675;28;20033;-69
2022/11/17 05:46:21;;;;;;;23.60;14.10;;;3.50;99.90;;;;;;5075538;28;20020;-69
2022/11/17 05:48:49;;;;;;;25.63;13.38;;;3.50;99.90;;;;;;5075598;28;20032;-69
2022/11/17 05:51:19;;;;;;;29.00;13.15;;;3.50;99.90;;;;;;5075570;28;20058;-69
2022/11/17 05:53:45;;;;;;;27.95;13.10;;;3.50;99.90;;;;;;5075030;28;20399;-69
2022/11/17 05:56:36;;;;;;;20.58;12.82;;;3.50;99.90;;;;;;5075177;28;20028;-69
2022/11/17 05:59:05;;;;;;;23.48;12.80;;;3.40;99.90;;;;;;5075360;28;20031;-69
2022/11/17 06:01:32;;;;;;;25.13;13.55;;;3.40;99.90;;;;;;5075019;28;20387;-69
2022/11/17 06:04:01;;;;;;;31.25;13.90;;;3.40;99.90;;;;;;5075232;28;20016;-69
2022/11/17 06:06:28;;;;;;;32.22;15.18;;;3.40;99.90;;;;;;5075037;28;20017;-69
2022/11/17 06:08:54;;;;;;;27.73;13.98;;;3.40;99.90;;;;;;5074597;28;20082;-69
2022/11/17 06:11:19;;;;;;;26.42;14.20;;;3.40;99.90;;;;;;5075096;28;20097;-69
2022/11/17 06:13:45;;;;;;;35.63;15.30;;;3.50;99.90;;;;;;5075196;28;20028;-69
2022/11/17 06:16:16;;;;;;;28.67;13.90;;;3.50;99.90;;;;;;5074451;28;20040;-69
2022/11/17 06:18:49;;;;;;;27.67;14.73;;;3.50;99.90;;;;;;5074756;28;20024;-69
2022/11/17 06:21:15;;;;;;;;;;;3.50;99.90;;;;;;5069666;28;20021;-69
2022/11/17 06:23:43;;;;;;;29.50;14.40;;;3.50;99.90;;;;;;5055030;28;19912;-69
2022/11/17 06:26:10;;;;;;;31.23;15.00;;;3.50;99.90;;;;;;5054128;28;20021;-69
2022/11/17 06:28:37;;;;;;;31.42;14.20;;;3.50;99.90;;;;;;5054795;28;20024;-69
2022/11/17 06:31:04;;;;;;;25.38;14.52;;;3.50;99.90;;;;;;5054603;28;20487;-69
2022/11/17 06:33:30;;;;;;;26.33;14.27;;;3.50;99.90;;;;;;5055074;28;20460;-69
2022/11/17 06:35:59;;;;;;;27.58;14.52;;;3.50;99.90;;;;;;5058537;28;20027;-69
2022/11/17 06:38:25;;;;;;;32.08;14.85;;;3.50;99.90;;;;;;5074314;28;20031;-69
2022/11/17 06:40:51;;;;;;;25.05;14.90;;;3.40;99.90;;;;;;5074629;28;20099;-69
2022/11/17 06:43:17;;;;;;;29.25;15.63;;;3.40;99.90;;;;;;5074323;28;20365;-69
2022/11/17 06:45:44;;;;;;;25.17;14.70;;;3.50;99.90;;;;;;5073627;28;20017;-69
2022/11/17 06:48:12;;;;;;;28.75;15.52;;;3.50;99.90;;;;;;5074240;28;20052;-69
2022/11/17 06:50:37;;;;;;;30.83;15.57;;;3.40;99.90;;;;;;5074468;28;20391;-69
2022/11/17 06:53:06;;;;;;;29.23;14.63;;;3.40;99.90;;;;;;5073757;28;20040;-69
2022/11/17 06:55:32;;;;;;;26.80;14.70;;;3.50;99.90;;;;;;5074214;28;20063;-69
2022/11/17 06:58:05;;;;;;;27.45;14.57;;;3.40;99.90;;;;;;5074087;28;20025;-69
2022/11/17 07:00:31;;;;;;;32.45;14.88;;;3.50;99.90;;;;;;5073770;28;20021;-69
2022/11/17 07:03:00;;;;;;;22.88;14.15;;;3.50;99.90;;;;;;5073878;28;20032;-69
2022/11/17 07:05:26;;;;;;;30.00;15.02;;;3.40;99.90;;;;;;5074026;28;20062;-69
2022/11/17 07:07:55;;;;;;;26.90;14.43;;;3.40;99.90;;;;;;5073808;28;20032;-69
2022/11/17 07:10:20;;;;;;;27.52;13.98;;;3.40;99.90;;;;;;5074295;28;20031;-69
2022/11/17 07:12:46;;;;;;;28.27;14.35;;;3.40;99.90;;;;;;5073372;28;20103;-69
2022/11/17 07:15:11;;;;;;;27.35;14.65;;;3.40;99.90;;;;;;5074177;28;20017;-69
2022/11/17 07:17:37;;;;;;;30.00;14.52;;;3.40;99.90;;;;;;5073741;28;20055;-69
2022/11/17 07:20:03;;;;;;;25.65;14.23;;;3.40;99.90;;;;;;5073705;28;20021;-69
2022/11/17 07:22:28;;;;;;;25.85;14.50;;;3.40;99.90;;;;;;5072878;28;20028;-69
2022/11/17 07:24:54;;;;;;;24.35;13.88;;;3.40;99.90;;;;;;5073452;28;20086;-69
2022/11/17 07:27:19;;;;;;;23.67;14.75;;;3.40;99.90;;;;;;5073451;28;20104;-69
2022/11/17 07:29:45;;;;;;;26.80;14.15;;;3.40;99.90;;;;;;5072926;28;20060;-69
2022/11/17 07:32:12;;;;;;;24.83;14.57;;;3.40;99.90;;;;;;5073473;28;20027;-69
2022/11/17 07:34:39;;;;;;;23.38;14.07;;;3.30;99.90;;;;;;5073554;28;20052;-69
2022/11/17 07:37:04;;;;;;;22.08;14.45;;;3.30;99.90;;;;;;5073417;28;20430;-69
2022/11/17 07:39:30;;;;;;;22.77;13.02;;;3.20;99.90;;;;;;5073159;28;20028;-69
2022/11/17 07:41:55;;;;;;;26.35;15.95;;;3.10;99.90;;;;;;5072899;28;20502;-69
2022/11/17 07:44:21;;;;;;;22.52;12.77;;;3.10;99.90;;;;;;5073255;28;20058;-69
2022/11/17 07:46:46;;;;;;;30.20;15.52;;;3.00;99.90;;;;;;5073169;28;20032;-69
2022/11/17 07:49:12;;;;;;;27.42;14.40;;;3.00;99.90;;;;;;5072807;28;20032;-69
2022/11/17 07:51:37;;;;;;;20.65;13.48;;;3.00;99.90;;;;;;5073061;28;20029;-69
2022/11/17 07:54:03;;;;;;;23.98;13.93;;;3.10;99.90;;;;;;5073294;28;20565;-69
2022/11/17 07:56:28;;;;;;;28.90;15.15;;;3.10;99.90;;;;;;5072353;28;20036;-69
2022/11/17 07:58:54;;;;;;;23.48;14.32;;;3.20;99.90;;;;;;5073066;28;20048;-69
2022/11/17 08:01:20;;;;;;;19.33;13.32;;;3.10;99.90;;;;;;5072969;28;20467;-69
2022/11/17 08:03:45;;;;;;;28.00;14.13;;;3.20;99.90;;;;;;5073422;28;20372;-69
2022/11/17 08:06:11;;;;;;;24.75;14.82;;;3.20;99.90;;;;;;5073304;28;20440;-69
2022/11/17 08:08:37;;;;;;;23.60;15.05;;;3.20;99.90;;;;;;5072763;28;20082;-69
2022/11/17 08:11:07;;;;;;;24.50;15.48;;;3.20;99.90;;;;;;5073141;28;20025;-69
2022/11/17 08:13:34;;;;;;;23.30;15.68;;;3.20;99.90;;;;;;5073770;28;20427;-69
2022/11/17 08:16:00;;;;;;;32.35;17.27;;;3.20;99.90;;;;;;5072918;28;20044;-69
2022/11/17 08:18:26;;;;;;;25.25;16.23;;;3.20;99.90;;;;;;5072837;28;20472;-69
2022/11/17 08:20:51;;;;;;;22.80;15.55;;;3.20;99.90;;;;;;5073463;28;20090;-69
2022/11/17 08:23:17;;;;;;;22.15;16.17;;;3.30;99.90;;;;;;5073276;28;20524;-69
2022/11/17 08:25:43;;;;;;;26.17;17.85;;;3.30;99.90;;;;;;5073186;28;20077;-69
2022/11/17 08:28:08;;;;;;;25.73;15.30;;;3.30;99.90;;;;;;5072360;28;20043;-69
2022/11/17 08:30:34;;;;;;;27.85;17.52;;;3.40;99.90;;;;;;5073004;28;20024;-69
2022/11/17 08:33:01;;;;;;;23.73;15.10;;;3.40;99.90;;;;;;5075706;28;20396;-69
2022/11/17 08:35:27;;;;;;;23.92;15.75;;;3.50;99.90;;;;;;5076450;28;20422;-69
2022/11/17 08:37:53;;;;;;;27.33;14.93;;;3.50;99.90;;;;;;5076771;28;20024;-69
2022/11/17 08:40:19;;;;;;;22.75;14.02;;;3.50;99.90;;;;;;5076897;28;20024;-69
2022/11/17 08:42:45;;;;;;;22.45;13.60;;;3.60;99.90;;;;;;5076744;28;20036;-69
2022/11/17 08:45:11;;;;;;;19.17;12.85;;;3.60;99.90;;;;;;5076301;28;20365;-69
2022/11/17 08:47:37;;;;;;;18.67;12.15;;;3.60;99.90;;;;;;5076923;28;20078;-69
2022/11/17 08:50:04;;;;;;;21.88;12.75;;;3.60;99.90;;;;;;5076958;28;20527;-69
2022/11/17 08:52:30;;;;;;;23.33;14.07;;;3.60;99.90;;;;;;5076390;28;20116;-69
2022/11/17 08:54:56;;;;;;;22.83;15.00;;;3.70;99.90;;;;;;5076626;28;20044;-69
2022/11/17 08:57:21;;;;;;;23.05;13.43;;;3.70;99.90;;;;;;5076136;28;20021;-69
2022/11/17 08:59:47;;;;;;;17.08;12.35;;;3.70;99.90;;;;;;5075886;28;20089;-69
2022/11/17 09:02:13;;;;;;;27.50;12.35;;;3.70;99.90;;;;;;5076496;28;20028;-69
2022/11/17 09:04:39;;;;;;;20.00;12.07;;;3.60;99.90;;;;;;5076431;28;20525;-69
2022/11/17 09:07:05;;;;;;;17.50;12.73;;;3.70;99.90;;;;;;5076097;28;20027;-69
2022/11/17 09:09:32;;;;;;;18.05;12.38;;;3.70;99.90;;;;;;5075269;28;20028;-69
2022/11/17 09:11:58;;;;;;;20.38;11.48;;;3.70;99.90;;;;;;5076022;28;20024;-69
2022/11/17 09:14:24;;;;;;;16.30;11.48;;;3.80;99.90;;;;;;5075990;28;20076;-69
2022/11/17 09:16:50;;;;;;;19.92;11.82;;;3.70;99.90;;;;;;5075909;28;20031;-69
2022/11/17 09:19:16;;;;;;;17.02;11.52;;;3.70;99.90;;;;;;5075282;28;20117;-69
2022/11/17 09:21:42;;;;;;;20.35;11.45;;;3.70;99.90;;;;;;5076007;28;20020;-69
2022/11/17 09:24:08;;;;;;;23.55;9.55;;;3.80;99.90;;;;;;5075846;28;20538;-69
2022/11/17 09:26:34;;;;;;;20.65;9.75;;;3.90;99.90;;;;;;5075811;28;20021;-69
2022/11/17 09:29:01;;;;;;;17.70;9.27;;;3.90;99.90;;;;;;5075792;28;20440;-69
2022/11/17 09:31:27;;;;;;;23.92;8.80;;;3.90;99.90;;;;;;5075775;28;20085;-69
2022/11/17 09:33:53;;;;;;;20.20;8.68;;;3.90;99.90;;;;;;5075204;28;20473;-69
2022/11/17 09:36:18;;;;;;;12.70;8.50;;;3.90;99.90;;;;;;5075852;28;20028;-69
2022/11/17 09:38:45;;;;;;;14.50;8.73;;;4.00;99.90;;;;;;5057571;28;20024;-69
2022/11/17 09:41:23;;;;;;;19.15;8.23;;;4.00;99.90;;;;;;5075792;28;20025;-69
2022/11/17 09:43:51;;;;;;;20.08;8.15;;;4.00;99.90;;;;;;5074530;28;20012;-69
2022/11/17 09:46:35;;;;;;;15.25;8.18;;;4.00;99.90;;;;;;5074829;28;20028;-69
2022/11/17 09:49:11;;;;;;;15.63;8.00;;;4.10;99.90;;;;;;5075754;28;20488;-69
2022/11/17 09:51:39;;;;;;;14.30;8.45;;;4.20;99.90;;;;;;5075392;28;20085;-69
2022/11/17 09:54:19;;;;;;;15.65;7.80;;;4.20;99.90;;;;;;5075263;28;20031;-69
2022/11/17 09:56:46;;;;;;;17.05;7.65;;;4.20;99.90;;;;;;5075473;28;20408;-69
2022/11/17 09:59:14;;;;;;;12.63;7.88;;;4.20;99.90;;;;;;5075348;28;20534;-69
2022/11/17 10:01:40;;;;;;;10.80;7.28;;;4.30;99.90;;;;;;5074720;28;20100;-69
2022/11/17 10:04:11;;;;;;;18.77;7.88;;;4.40;99.90;;;;;;5075095;28;20044;-69
2022/11/17 10:06:37;;;;;;;11.07;8.07;;;4.40;99.90;;;;;;5075453;28;20028;-69
2022/11/17 10:09:21;;;;;;;19.58;7.20;;;4.40;99.90;;;;;;5075032;28;20024;-69
2022/11/17 10:11:47;;;;;;;13.00;7.47;;;4.40;99.90;;;;;;5074653;28;20024;-69
2022/11/17 10:14:15;;;;;;;14.43;7.90;;;4.50;99.90;;;;;;5076178;28;20033;-69
2022/11/17 10:16:48;;;;;;;19.42;7.35;;;4.50;99.90;;;;;;5075313;28;20529;-69
2022/11/17 10:19:17;;;;;;;19.03;6.73;;;4.50;99.90;;;;;;5074929;28;20033;-69
2022/11/17 10:21:46;;;;;;;13.63;8.50;;;4.50;99.90;;;;;;5074989;28;20025;-69
2022/11/17 10:24:32;;;;;;;15.02;7.25;;;4.50;99.90;;;;;;5075514;28;20028;-69
2022/11/17 10:26:58;;;;;;;13.68;7.85;;;4.50;99.90;;;;;;5074379;28;20025;-69
2022/11/17 10:29:23;;;;;;;15.68;7.57;;;4.50;99.90;;;;;;5074590;28;20036;-69
2022/11/17 10:31:49;;;;;;;10.00;7.07;;;4.50;99.90;;;;;;5074839;28;20073;-69
2022/11/17 10:34:35;;;;;;;12.43;6.95;;;4.50;99.90;;;;;;5074438;28;20024;-69
2022/11/17 10:37:21;;;;;;;12.48;6.85;;;4.40;99.90;;;;;;5074650;28;20032;-69
2022/11/17 10:39:47;;;;;;;14.90;7.65;;;4.40;99.90;;;;;;5073820;28;20031;-69
2022/11/17 10:42:19;;;;;;;12.85;7.50;;;4.40;99.90;;;;;;5074529;28;20020;-69
2022/11/17 10:44:50;;;;;;;12.60;6.78;;;4.40;99.90;;;;;;5074599;28;20024;-69
2022/11/17 10:47:38;;;;;;;10.85;7.55;;;4.30;99.90;;;;;;5074249;28;20016;-69
2022/11/17 10:50:24;;;;;;;14.60;7.50;;;4.30;99.90;;;;;;5073834;28;20029;-69
2022/11/17 10:52:51;;;;;;;11.77;7.07;;;4.30;99.90;;;;;;5074421;28;20017;-69
2022/11/17 10:55:24;;;;;;;12.13;7.40;;;4.30;99.90;;;;;;5073762;28;20105;-69
2022/11/17 10:57:54;;;;;;;11.20;7.43;;;4.30;99.90;;;;;;5115093;22;20053;-73
2022/11/17 11:00:35;;;;;;;14.77;7.97;;;4.30;99.90;;;;;;5054586;28;20029;-73
2022/11/17 11:03:18;;;;;;;18.05;8.10;;;4.40;99.90;;;;;;5054519;28;20017;-73
2022/11/17 11:06:25;;;;;;;15.10;7.40;;;4.30;99.90;;;;;;5053749;28;20075;-73
2022/11/17 11:09:12;;;;;;;15.18;7.07;;;4.30;99.90;;;;;;5025170;28;20068;-73
2022/11/17 11:11:45;;;;;;;15.55;7.97;;;4.30;99.90;;;;;;5016547;28;20029;-73
2022/11/17 11:14:35;;;;;;;17.00;8.18;;;4.30;99.90;;;;;;5034509;28;20032;-73
2022/11/17 11:17:12;;;;;;;11.88;7.95;;;4.30;99.90;;;;;;5034240;28;20076;-73
2022/11/17 11:19:41;;;;;;;12.38;7.75;;;4.30;99.90;;;;;;5033601;28;20029;-73
2022/11/17 11:22:34;;;;;;;14.38;8.38;;;4.30;99.90;;;;;;5016299;28;20025;-73
2022/11/17 11:25:14;;;;;;;15.63;8.70;;;4.30;99.90;;;;;;5034307;28;20543;-73
2022/11/17 11:27:45;;;;;;;12.60;8.25;;;4.40;99.90;;;;;;5033956;28;20465;-73
2022/11/17 11:30:15;;;;;;;12.70;8.20;;;4.30;99.90;;;;;;5016209;28;20025;-73
2022/11/17 11:33:26;;;;;;;13.10;8.38;;;4.30;99.90;;;;;;5034119;28;20113;-73
2022/11/17 11:36:13;;;;;;;13.48;8.32;;;4.30;99.90;;;;;;5033997;28;20105;-73
2022/11/17 11:39:00;;;;;;;13.77;9.10;;;4.30;99.90;;;;;;5033963;28;20030;-74
2022/11/17 11:41:57;;;;;;;17.13;7.72;;;4.30;99.90;;;;;;5033194;28;20433;-73
2022/11/17 11:44:44;;;;;;;13.00;7.63;;;4.30;99.90;;;;;;5034003;28;20025;-73
2022/11/17 11:47:29;;;;;;;15.00;8.27;;;4.30;99.90;;;;;;5016209;28;20480;-73
2022/11/17 11:50:01;;;;;;;10.60;7.47;;;4.30;99.90;;;;;;5033211;28;20068;-73
2022/11/17 11:52:31;;;;;;;11.48;8.40;;;4.30;99.90;;;;;;5033907;28;20048;-73
2022/11/17 11:55:36;;;;;;;14.45;8.07;;;4.30;99.90;;;;;;5033750;28;20053;-73
2022/11/17 11:58:11;;;;;;;;;;;4.30;99.90;;;;;;5015548;28;20033;-73
2022/11/17 12:00:40;;;;;;;13.18;8.95;;;4.20;99.90;;;;;;5031887;28;19916;-73
2022/11/17 12:03:17;;;;;;;15.55;8.65;;;4.30;99.90;;;;;;5033705;28;20025;-73
2022/11/17 12:06:38;;;;;;;12.88;8.88;;;4.30;99.90;;;;;;5033753;28;20491;-73
2022/11/17 12:09:17;;;;;;;15.10;8.30;;;4.30;99.90;;;;;;5039974;28;20085;-73
2022/11/17 12:12:01;;;;;;;20.35;8.15;;;4.20;99.90;;;;;;5040371;28;20036;-73
2022/11/17 12:14:29;;;;;;;11.50;8.65;;;4.20;99.90;;;;;;5039718;28;20029;-73
2022/11/17 12:17:17;;;;;;;14.35;9.68;;;4.20;99.90;;;;;;5040196;28;20037;-73
2022/11/17 12:20:01;;;;;;;13.55;9.25;;;4.20;99.90;;;;;;5039908;28;20100;-73
2022/11/17 12:22:31;;;;;;;12.77;8.80;;;4.20;99.90;;;;;;5038891;28;20024;-73
2022/11/17 12:25:13;;;;;;;21.27;9.52;;;4.20;99.90;;;;;;5043295;28;20072;-73
2022/11/17 12:27:40;;;;;;;27.88;10.10;;;4.20;99.90;;;;;;5039768;28;20022;-73
2022/11/17 12:30:32;;;;;;;13.57;8.48;;;4.20;99.90;;;;;;5045923;28;20027;-73
2022/11/17 12:32:59;;;;;;;14.02;8.88;;;4.20;99.90;;;;;;5020082;28;20018;-73
2022/11/17 12:35:26;;;;;;;15.30;9.90;;;4.20;99.90;;;;;;5019650;28;20104;-73
2022/11/17 12:38:14;;;;;;;16.35;9.07;;;4.20;99.90;;;;;;5019872;28;20105;-73
2022/11/17 12:40:45;;;;;;;19.40;9.40;;;4.20;99.90;;;;;;5002399;28;20396;-73
2022/11/17 12:43:13;;;;;;;13.20;9.25;;;4.20;99.90;;;;;;5019575;28;20088;-73
2022/11/17 12:45:51;;;;;;;16.48;8.98;;;4.20;99.90;;;;;;5019886;28;20018;-73
2022/11/17 12:48:21;;;;;;;11.15;8.18;;;4.20;99.90;;;;;;5019756;28;20026;-73
2022/11/17 12:51:04;;;;;;;18.38;9.10;;;4.20;99.90;;;;;;5019823;28;20480;-73
2022/11/17 12:53:36;;;;;;;14.18;8.63;;;4.20;99.90;;;;;;5002127;28;20049;-73
2022/11/17 12:56:08;;;;;;;15.90;8.27;;;4.20;99.90;;;;;;5019818;28;20022;-73
2022/11/17 12:58:58;;;;;;;17.13;9.18;;;4.20;99.90;;;;;;5019090;28;20405;-73
2022/11/17 13:01:39;;;;;;;13.88;9.07;;;4.30;99.90;;;;;;5020119;28;20022;-73
2022/11/17 13:04:13;;;;;;;13.02;9.45;;;4.30;99.90;;;;;;5019773;28;20519;-73
2022/11/17 13:07:00;;;;;;;15.05;8.70;;;4.30;99.90;;;;;;5019993;28;20378;-73
2022/11/17 13:09:29;;;;;;;14.27;8.32;;;4.30;99.90;;;;;;5019917;28;20052;-73
2022/11/17 13:11:59;;;;;;;18.88;8.52;;;4.30;99.90;;;;;;5019229;28;20504;-73
2022/11/17 13:14:24;;;;;;;14.27;8.20;;;4.30;99.90;;;;;;5019880;28;20432;-73
2022/11/17 13:16:50;;;;;;;16.73;9.38;;;4.30;99.90;;;;;;5019761;28;20026;-73
2022/11/17 13:19:29;;;;;;;14.88;8.98;;;4.30;99.90;;;;;;5017139;28;20374;-72
2022/11/17 13:22:23;;;;;;;11.82;8.30;;;4.40;99.90;;;;;;5016734;28;20370;-73
2022/11/17 13:24:49;;;;;;;22.67;8.93;;;4.30;99.90;;;;;;5016147;28;20038;-73
2022/11/17 13:27:27;;;;;;;13.18;7.97;;;4.40;99.90;;;;;;5016671;28;20105;-73
2022/11/17 13:30:11;;;;;;;15.77;9.00;;;4.30;99.90;;;;;;5016904;28;20084;-73
2022/11/17 13:32:38;;;;;;;15.73;8.55;;;4.30;99.90;;;;;;5016281;28;20360;-73
2022/11/17 13:35:18;;;;;;;18.60;8.43;;;4.30;99.90;;;;;;5016243;28;20030;-73